createdAt,value
2023-04-24T00:01:08.354Z,99.90
2023-04-24T00:03:35.674Z,99.90
2023-04-24T00:06:03.546Z,99.90
2023-04-24T00:08:30.540Z,99.90
2023-04-24T00:10:57.385Z,99.90
2023-04-24T00:13:24.040Z,99.90
2023-04-24T00:15:50.783Z,99.90
2023-04-24T00:18:17.408Z,99.90
2023-04-24T00:20:44.844Z,99.90
2023-04-24T00:23:11.532Z,99.90
2023-04-24T00:25:38.108Z,99.90
2023-04-24T00:28:04.762Z,99.90
2023-04-24T00:30:31.549Z,99.90
2023-04-24T00:32:58.495Z,99.90
2023-04-24T00:35:25.297Z,99.90
2023-04-24T00:37:51.985Z,99.90
2023-04-24T00:40:18.648Z,99.90
2023-04-24T00:42:45.933Z,99.90
2023-04-24T00:45:13.197Z,99.90
2023-04-24T00:47:40.237Z,99.90
2023-04-24T00:50:07.822Z,99.90
2023-04-24T00:52:34.665Z,99.90
2023-04-24T00:55:01.401Z,99.90
2023-04-24T00:57:28.258Z,99.90
2023-04-24T00:59:55.564Z,99.90
2023-04-24T01:02:24.190Z,99.90
2023-04-24T01:04:52.206Z,99.90
2023-04-24T01:07:21.874Z,99.90
2023-04-24T01:09:49.953Z,99.90
2023-04-24T01:12:16.765Z,99.90
2023-04-24T01:14:43.950Z,99.90
2023-04-24T01:17:10.590Z,99.90
2023-04-24T01:19:37.999Z,99.90
2023-04-24T01:22:09.771Z,99.90
2023-04-24T01:24:36.565Z,99.90
2023-04-24T01:27:03.293Z,99.90
2023-04-24T01:29:29.997Z,99.90
2023-04-24T01:31:56.806Z,99.90
2023-04-24T01:34:23.645Z,99.90
2023-04-24T01:36:51.201Z,99.90
2023-04-24T01:39:17.961Z,99.90
2023-04-24T01:41:44.589Z,99.90
2023-04-24T01:44:11.366Z,99.90
2023-04-24T01:46:38.355Z,99.90
2023-04-24T01:49:05.071Z,99.90
2023-04-24T01:51:31.820Z,99.90
2023-04-24T01:53:58.460Z,99.90
2023-04-24T01:56:26.529Z,99.90
2023-04-24T01:58:54.590Z,99.90
2023-04-24T02:01:22.042Z,99.90
2023-04-24T02:03:48.949Z,99.90
2023-04-24T02:06:15.669Z,99.90
2023-04-24T02:08:42.651Z,99.90
2023-04-24T02:11:12.418Z,99.90
2023-04-24T02:13:39.018Z,99.90
2023-04-24T02:16:05.774Z,99.90
2023-04-24T02:18:32.422Z,99.90
2023-04-24T02:20:58.999Z,99.90
2023-04-24T02:23:26.394Z,99.90
2023-04-24T02:25:54.155Z,99.90
2023-04-24T02:28:20.978Z,99.90
2023-04-24T02:30:47.612Z,99.90
2023-04-24T02:33:14.325Z,99.90
2023-04-24T02:35:40.901Z,99.90
2023-04-24T02:38:07.563Z,99.90
2023-04-24T02:40:34.204Z,99.90
2023-04-24T02:43:00.847Z,99.90
2023-04-24T02:45:27.450Z,99.90
2023-04-24T02:47:54.151Z,99.90
2023-04-24T02:50:20.777Z,99.90
2023-04-24T02:52:47.401Z,99.90
2023-04-24T02:55:15.251Z,99.90
2023-04-24T02:57:41.812Z,99.90
2023-04-24T03:00:09.891Z,99.90
2023-04-24T03:02:36.591Z,99.90
2023-04-24T03:05:04.253Z,99.90
2023-04-24T03:07:31.942Z,99.80
2023-04-24T03:09:59.298Z,99.90
2023-04-24T03:12:26.377Z,99.80
2023-04-24T03:14:52.944Z,99.90
2023-04-24T03:17:19.564Z,99.90
2023-04-24T03:19:46.184Z,99.90
2023-04-24T03:22:13.225Z,99.90
2023-04-24T03:24:39.837Z,99.90
2023-04-24T03:27:06.448Z,99.90
2023-04-24T03:29:33.043Z,99.90
2023-04-24T03:31:59.764Z,99.90
2023-04-24T03:34:26.696Z,99.90
2023-04-24T03:36:54.391Z,99.90
2023-04-24T03:39:20.971Z,99.90
2023-04-24T03:41:47.583Z,99.90
2023-04-24T03:44:14.189Z,99.90
2023-04-24T03:46:40.862Z,99.90
2023-04-24T03:49:07.736Z,99.90
2023-04-24T03:51:34.432Z,99.90
2023-04-24T03:54:01.147Z,99.90
2023-04-24T03:56:27.794Z,99.90
2023-04-24T03:58:54.449Z,99.90
2023-04-24T04:01:21.709Z,99.90
2023-04-24T04:03:48.770Z,99.90
2023-04-24T04:06:15.616Z,99.90
2023-04-24T04:08:42.228Z,99.70
2023-04-24T04:11:08.816Z,99.90
2023-04-24T04:13:35.440Z,99.90
2023-04-24T04:16:02.105Z,99.90
2023-04-24T04:18:28.900Z,99.90
2023-04-24T04:20:55.551Z,99.90
2023-04-24T04:23:22.131Z,99.90
2023-04-24T04:25:48.784Z,99.90
2023-04-24T04:28:16.692Z,99.90
2023-04-24T04:30:43.422Z,99.90
2023-04-24T04:33:11.563Z,99.90
2023-04-24T04:35:38.194Z,99.90
2023-04-24T04:38:05.694Z,99.90
2023-04-24T04:40:32.594Z,99.90
2023-04-24T04:42:59.342Z,99.90
2023-04-24T04:45:27.857Z,99.90
2023-04-24T04:47:56.037Z,99.90
2023-04-24T04:50:23.830Z,99.90
2023-04-24T04:52:50.464Z,99.90
2023-04-24T04:55:17.455Z,99.90
2023-04-24T04:57:44.039Z,99.90
2023-04-24T05:00:12.038Z,99.90
2023-04-24T05:02:39.988Z,99.90
2023-04-24T05:05:07.369Z,99.90
2023-04-24T05:07:35.309Z,99.90
2023-04-24T05:10:02.189Z,99.90
2023-04-24T05:12:28.872Z,99.90
2023-04-24T05:14:55.677Z,99.70
2023-04-24T05:17:22.330Z,99.30
2023-04-24T05:19:49.169Z,99.50
2023-04-24T05:22:16.043Z,99.30
2023-04-24T05:24:42.619Z,99.10
2023-04-24T05:27:09.226Z,99.70
2023-04-24T05:29:36.658Z,99.70
2023-04-24T05:32:03.298Z,99.00
2023-04-24T05:34:29.924Z,98.40
2023-04-24T05:36:56.702Z,97.60
2023-04-24T05:39:23.364Z,98.50
2023-04-24T05:41:49.941Z,98.10
2023-04-24T05:44:16.559Z,98.20
2023-04-24T05:46:43.221Z,98.60
2023-04-24T05:49:09.965Z,98.50
2023-04-24T05:51:36.738Z,98.10
2023-04-24T05:54:04.314Z,97.80
2023-04-24T05:56:31.676Z,98.00
2023-04-24T05:58:58.352Z,98.00
2023-04-24T06:01:26.040Z,96.60
2023-04-24T06:03:53.874Z,95.80
2023-04-24T06:06:20.789Z,95.00
2023-04-24T06:08:47.360Z,94.00
2023-04-24T06:11:14.165Z,94.30
2023-04-24T06:13:40.847Z,94.80
2023-04-24T06:16:07.640Z,93.30
2023-04-24T06:18:34.585Z,93.90
2023-04-24T06:21:01.165Z,93.50
2023-04-24T06:23:27.871Z,93.10
2023-04-24T06:25:54.606Z,93.00
2023-04-24T06:28:21.212Z,92.20
2023-04-24T06:30:47.830Z,92.80
2023-04-24T06:35:45.946Z,90.80
2023-04-24T06:38:12.574Z,91.20
2023-04-24T06:40:39.263Z,90.00
2023-04-24T06:43:07.145Z,91.00
2023-04-24T06:45:33.823Z,90.80
2023-04-24T06:48:00.611Z,91.40
2023-04-24T06:50:27.336Z,92.90
2023-04-24T06:52:54.034Z,93.30
2023-04-24T06:55:20.679Z,92.90
2023-04-24T06:57:47.452Z,93.90
2023-04-24T07:00:14.487Z,94.00
2023-04-24T07:02:41.219Z,94.20
2023-04-24T07:05:09.381Z,94.60
2023-04-24T07:07:38.657Z,95.20
2023-04-24T07:10:06.600Z,95.30
2023-04-24T07:12:33.878Z,95.50
2023-04-24T07:15:01.588Z,96.70
2023-04-24T07:17:28.308Z,96.80
2023-04-24T07:19:54.925Z,96.90
2023-04-24T07:22:21.800Z,97.00
2023-04-24T07:24:48.448Z,96.20
2023-04-24T07:27:16.186Z,97.00
2023-04-24T07:29:43.279Z,97.10
2023-04-24T07:32:10.330Z,97.30
2023-04-24T07:34:36.971Z,97.70
2023-04-24T07:37:04.238Z,96.80
2023-04-24T07:39:30.961Z,98.90
2023-04-24T07:41:59.582Z,98.90
2023-04-24T07:44:27.151Z,99.70
2023-04-24T07:46:53.799Z,99.90
2023-04-24T07:49:20.537Z,99.90
2023-04-24T07:51:47.181Z,99.90
2023-04-24T07:54:13.864Z,99.90
2023-04-24T07:56:42.460Z,99.90
2023-04-24T07:59:10.633Z,99.90
2023-04-24T08:01:37.428Z,99.90
2023-04-24T08:04:04.397Z,99.90
2023-04-24T08:06:32.766Z,99.90
2023-04-24T08:09:00.406Z,99.90
2023-04-24T08:11:27.809Z,99.90
2023-04-24T08:13:55.651Z,99.90
2023-04-24T08:16:22.577Z,99.90
2023-04-24T08:18:49.246Z,99.90
2023-04-24T08:21:18.128Z,99.90
2023-04-24T08:23:45.154Z,99.90
2023-04-24T08:26:12.239Z,99.90
2023-04-24T08:28:39.367Z,99.90
2023-04-24T08:31:06.250Z,99.90
2023-04-24T08:33:35.366Z,99.90
2023-04-24T08:36:06.999Z,99.90
2023-04-24T08:38:34.749Z,99.90
2023-04-24T08:41:02.809Z,99.90
2023-04-24T08:43:31.648Z,99.90
2023-04-24T08:45:58.393Z,99.90
2023-04-24T08:48:31.051Z,99.90
2023-04-24T08:51:00.065Z,99.90
2023-04-24T08:53:27.563Z,99.90
2023-04-24T08:55:56.306Z,99.90
2023-04-24T08:58:26.268Z,99.90
2023-04-24T09:00:55.438Z,99.90
2023-04-24T09:03:22.927Z,99.90
2023-04-24T09:05:51.421Z,99.90
2023-04-24T09:08:19.943Z,99.90
2023-04-24T09:10:48.574Z,99.90
2023-04-24T09:13:16.649Z,99.90
2023-04-24T09:15:43.816Z,99.90
2023-04-24T09:18:11.495Z,99.90
2023-04-24T09:21:02.288Z,99.90
2023-04-24T09:23:30.759Z,99.90
2023-04-24T09:25:58.925Z,99.90
2023-04-24T09:28:40.019Z,99.90
2023-04-24T09:31:19.593Z,99.90
2023-04-24T09:33:58.070Z,99.90
2023-04-24T09:36:29.721Z,99.90
2023-04-24T09:39:01.124Z,99.90
2023-04-24T09:41:29.067Z,99.90
2023-04-24T09:43:56.766Z,99.90
2023-04-24T09:46:31.952Z,99.90
2023-04-24T09:49:10.348Z,99.90
2023-04-24T09:51:39.023Z,99.90
2023-04-24T09:54:17.010Z,99.90
2023-04-24T09:56:46.122Z,99.90
2023-04-24T09:59:14.148Z,99.90
2023-04-24T10:01:43.517Z,99.90
2023-04-24T10:04:21.591Z,99.90
2023-04-24T10:06:49.972Z,99.90
2023-04-24T10:09:21.462Z,99.90
2023-04-24T10:11:50.663Z,99.90
2023-04-24T10:14:20.064Z,99.90
2023-04-24T10:16:50.492Z,99.90
2023-04-24T10:19:19.518Z,99.90
2023-04-24T10:21:49.646Z,99.90
2023-04-24T10:24:18.118Z,99.90
2023-04-24T10:26:46.599Z,99.90
2023-04-24T10:29:16.261Z,99.90
2023-04-24T10:31:44.176Z,99.90
2023-04-24T10:34:11.188Z,99.90
2023-04-24T10:36:42.492Z,99.90
2023-04-24T10:39:13.520Z,99.90
2023-04-24T10:41:40.742Z,99.90
2023-04-24T10:44:13.233Z,99.90
2023-04-24T10:46:43.564Z,99.90
2023-04-24T10:49:10.430Z,99.90
2023-04-24T10:51:54.503Z,99.90
2023-04-24T10:54:28.456Z,99.90
2023-04-24T10:57:24.015Z,99.90
2023-04-24T11:00:30.576Z,99.90
2023-04-24T11:02:58.764Z,99.90
2023-04-24T11:05:57.037Z,99.90
2023-04-24T11:08:26.944Z,99.90
2023-04-24T11:10:59.282Z,99.90
2023-04-24T11:13:28.345Z,99.90
2023-04-24T11:16:35.570Z,99.90
2023-04-24T11:19:10.682Z,99.90
2023-04-24T11:21:40.648Z,99.90
2023-04-24T11:24:28.784Z,99.90
2023-04-24T11:27:05.860Z,99.90
2023-04-24T11:29:42.649Z,99.90
2023-04-24T11:32:21.005Z,99.90
2023-04-24T11:34:56.771Z,99.90
2023-04-24T11:37:25.519Z,99.90
2023-04-24T11:39:54.059Z,99.90
2023-04-24T11:42:22.275Z,99.90
2023-04-24T11:44:50.029Z,99.90
2023-04-24T11:47:16.993Z,99.90
2023-04-24T11:49:43.718Z,99.90
2023-04-24T11:52:11.620Z,99.90
2023-04-24T11:54:38.579Z,99.40
2023-04-24T11:57:07.057Z,99.90
2023-04-24T11:59:38.259Z,99.90
2023-04-24T12:02:05.833Z,99.90
2023-04-24T12:04:41.491Z,99.90
2023-04-24T12:07:11.610Z,99.90
2023-04-24T12:10:01.837Z,99.90
2023-04-24T12:12:28.959Z,99.90
2023-04-24T12:14:58.085Z,99.90
2023-04-24T12:17:33.587Z,99.90
2023-04-24T12:20:02.254Z,99.90
2023-04-24T12:22:30.468Z,99.90
2023-04-24T12:25:06.200Z,99.90
2023-04-24T12:27:34.124Z,99.90
2023-04-24T12:30:02.979Z,99.90
2023-04-24T12:32:29.685Z,99.90
2023-04-24T12:34:57.117Z,99.90
2023-04-24T12:37:33.084Z,99.90
2023-04-24T12:40:08.197Z,99.90
2023-04-24T12:42:36.160Z,99.90
2023-04-24T12:45:07.266Z,99.90
2023-04-24T12:47:35.008Z,99.90
2023-04-24T12:50:02.684Z,99.90
2023-04-24T12:52:31.040Z,99.90
2023-04-24T12:55:02.052Z,99.90
2023-04-24T12:57:32.250Z,99.90
2023-04-24T12:59:59.827Z,98.60
2023-04-24T13:02:29.982Z,99.60
2023-04-24T13:04:56.774Z,99.90
2023-04-24T13:07:23.534Z,99.90
2023-04-24T13:09:51.551Z,99.90
2023-04-24T13:12:18.631Z,99.90
2023-04-24T13:14:46.510Z,99.90
2023-04-24T13:17:13.982Z,99.90
2023-04-24T13:19:42.362Z,99.90
2023-04-24T13:22:11.500Z,99.70
2023-04-24T13:24:39.850Z,98.30
2023-04-24T13:27:08.412Z,99.10
2023-04-24T13:29:35.095Z,98.10
2023-04-24T13:32:01.733Z,98.50
2023-04-24T13:34:28.488Z,97.60
2023-04-24T13:36:56.880Z,96.00
2023-04-24T13:39:24.564Z,97.50
2023-04-24T13:41:51.288Z,98.80
2023-04-24T13:44:19.248Z,99.20
2023-04-24T13:46:47.568Z,99.80
2023-04-24T13:49:15.498Z,99.90
2023-04-24T13:51:43.026Z,99.90
2023-04-24T13:54:09.724Z,99.90
2023-04-24T13:56:36.570Z,99.90
2023-04-24T13:59:03.318Z,99.90
2023-04-24T14:01:30.014Z,99.90
2023-04-24T14:03:58.022Z,99.90
2023-04-24T14:06:24.824Z,99.90
2023-04-24T14:08:51.935Z,99.90
2023-04-24T14:11:19.792Z,99.90
2023-04-24T14:13:47.249Z,99.90
2023-04-24T14:16:15.018Z,99.90
2023-04-24T14:18:41.608Z,99.90
2023-04-24T14:21:08.518Z,99.00
2023-04-24T14:23:35.132Z,99.90
2023-04-24T14:26:01.849Z,98.70
2023-04-24T14:28:28.711Z,99.90
2023-04-24T14:30:55.476Z,99.90
2023-04-24T14:33:22.295Z,97.00
2023-04-24T14:35:49.027Z,96.00
2023-04-24T14:38:16.242Z,96.60
2023-04-24T14:43:12.812Z,98.30
2023-04-24T14:45:41.059Z,96.80
2023-04-24T14:48:09.031Z,96.20
2023-04-24T14:50:35.941Z,96.50
2023-04-24T14:53:03.205Z,95.60
2023-04-24T14:55:29.897Z,95.10
2023-04-24T14:57:56.713Z,95.60
2023-04-24T15:00:26.751Z,95.10
2023-04-24T15:02:53.639Z,96.50
2023-04-24T15:05:20.917Z,97.00
2023-04-24T15:07:47.696Z,97.30
2023-04-24T15:10:14.392Z,97.30
2023-04-24T15:12:41.184Z,97.60
2023-04-24T15:15:08.753Z,97.20
2023-04-24T15:17:35.552Z,97.40
2023-04-24T15:20:03.816Z,97.80
2023-04-24T15:22:30.565Z,98.70
2023-04-24T15:24:57.141Z,98.90
2023-04-24T15:27:23.970Z,99.90
2023-04-24T15:29:50.641Z,99.90
2023-04-24T15:32:17.398Z,99.90
2023-04-24T15:34:44.609Z,99.90
2023-04-24T15:37:12.577Z,99.90
2023-04-24T15:39:39.183Z,99.90
2023-04-24T15:42:05.976Z,99.70
2023-04-24T15:44:32.585Z,98.70
2023-04-24T15:47:01.570Z,99.10
2023-04-24T15:49:28.191Z,98.80
2023-04-24T15:51:54.764Z,98.90
2023-04-24T15:54:22.424Z,98.50
2023-04-24T15:56:51.038Z,98.80
2023-04-24T15:59:18.866Z,98.30
2023-04-24T16:01:45.728Z,99.20
2023-04-24T16:04:12.603Z,96.90
2023-04-24T16:06:39.567Z,96.80
2023-04-24T16:09:06.731Z,98.10
2023-04-24T16:11:34.040Z,98.70
2023-04-24T16:14:00.779Z,96.40
2023-04-24T16:16:27.905Z,97.30
2023-04-24T16:18:54.571Z,97.30
2023-04-24T16:21:21.312Z,96.10
2023-04-24T16:23:48.182Z,96.80
2023-04-24T16:26:15.707Z,96.60
2023-04-24T16:28:43.305Z,97.20
2023-04-24T16:31:10.443Z,95.10
2023-04-24T16:33:37.173Z,94.30
2023-04-24T16:36:05.889Z,95.00
2023-04-24T16:38:34.148Z,94.80
2023-04-24T16:41:00.894Z,94.10
2023-04-24T16:43:27.616Z,95.20
2023-04-24T16:45:54.707Z,95.10
2023-04-24T16:48:21.408Z,95.40
2023-04-24T16:50:48.192Z,94.50
2023-04-24T16:53:14.883Z,95.30
2023-04-24T16:55:41.557Z,95.50
2023-04-24T16:58:08.272Z,95.90
2023-04-24T17:00:35.412Z,95.80
2023-04-24T17:03:02.164Z,94.70
2023-04-24T17:05:28.956Z,95.30
2023-04-24T17:07:55.589Z,95.00
2023-04-24T17:10:22.746Z,95.40
2023-04-24T17:12:50.991Z,94.80
2023-04-24T17:15:17.667Z,94.40
2023-04-24T17:17:46.031Z,94.50
2023-04-24T17:20:22.115Z,95.00
2023-04-24T17:22:49.783Z,96.00
2023-04-24T17:25:16.750Z,95.60
2023-04-24T17:27:44.086Z,95.90
2023-04-24T17:30:11.375Z,96.80
2023-04-24T17:32:38.145Z,95.60
2023-04-24T17:35:05.716Z,96.10
2023-04-24T17:37:33.479Z,96.10
2023-04-24T17:40:01.265Z,97.30
2023-04-24T17:42:29.281Z,96.80
2023-04-24T17:44:56.006Z,97.40
2023-04-24T17:47:27.273Z,98.50
2023-04-24T17:49:54.079Z,98.90
2023-04-24T17:52:21.711Z,98.90
2023-04-24T17:54:50.361Z,99.90
2023-04-24T17:57:17.013Z,99.70
2023-04-24T17:59:44.665Z,99.70
2023-04-24T18:02:11.511Z,99.90
2023-04-24T18:04:40.461Z,99.90
2023-04-24T18:07:07.184Z,99.90
2023-04-24T18:09:33.770Z,99.90
2023-04-24T18:12:01.580Z,99.90
2023-04-24T18:14:28.423Z,99.90
2023-04-24T18:16:56.997Z,99.90
2023-04-24T18:19:24.736Z,99.90
2023-04-24T18:21:51.450Z,99.80
2023-04-24T18:24:18.964Z,99.90
2023-04-24T18:26:45.548Z,99.90
2023-04-24T18:29:12.194Z,99.90
2023-04-24T18:31:38.917Z,99.90
2023-04-24T18:34:05.755Z,99.90
2023-04-24T18:36:33.150Z,99.90
2023-04-24T18:38:59.769Z,99.90
2023-04-24T18:41:26.500Z,99.90
2023-04-24T18:43:53.127Z,99.90
2023-04-24T18:46:19.702Z,99.90
2023-04-24T18:48:46.489Z,99.90
2023-04-24T18:51:13.589Z,99.90
2023-04-24T18:53:41.268Z,99.90
2023-04-24T18:56:07.923Z,99.90
2023-04-24T18:58:34.521Z,99.90
2023-04-24T19:01:01.241Z,99.90
2023-04-24T19:03:29.812Z,99.90
2023-04-24T19:05:56.610Z,99.90
2023-04-24T19:08:23.209Z,99.90
2023-04-24T19:10:51.204Z,99.90
2023-04-24T19:13:17.866Z,99.90
2023-04-24T19:15:45.764Z,99.90
2023-04-24T19:18:12.569Z,99.90
2023-04-24T19:20:39.201Z,99.90
2023-04-24T19:23:07.364Z,99.90
2023-04-24T19:25:34.144Z,99.90
2023-04-24T19:28:00.890Z,99.90
2023-04-24T19:30:27.495Z,99.90
2023-04-24T19:32:54.194Z,99.90
2023-04-24T19:35:21.052Z,99.90
2023-04-24T19:37:47.683Z,99.90
2023-04-24T19:40:14.296Z,99.90
2023-04-24T19:42:44.214Z,99.90
2023-04-24T19:45:12.891Z,99.90
2023-04-24T19:47:39.861Z,99.90
2023-04-24T19:50:07.598Z,99.90
2023-04-24T19:52:34.185Z,99.90
2023-04-24T19:55:00.845Z,99.90
2023-04-24T19:57:27.723Z,99.90
2023-04-24T19:59:54.342Z,99.90
2023-04-24T20:02:21.180Z,99.90
2023-04-24T20:04:48.029Z,99.90
2023-04-24T20:07:15.668Z,99.90
2023-04-24T20:09:42.273Z,99.90
2023-04-24T20:12:09.840Z,99.90
2023-04-24T20:14:36.646Z,99.90
2023-04-24T20:17:03.342Z,99.90
2023-04-24T20:19:30.158Z,99.90
2023-04-24T20:21:56.828Z,99.90
2023-04-24T20:24:23.418Z,99.90
2023-04-24T20:26:50.262Z,99.90
2023-04-24T20:29:16.973Z,99.90
2023-04-24T20:31:43.679Z,99.90
2023-04-24T20:34:10.398Z,99.90
2023-04-24T20:36:37.188Z,99.90
2023-04-24T20:39:06.561Z,99.90
2023-04-24T20:41:36.372Z,99.90
2023-04-24T20:44:04.084Z,99.90
2023-04-24T20:46:31.337Z,99.90
2023-04-24T20:48:57.976Z,99.90
2023-04-24T20:51:24.604Z,99.90
2023-04-24T20:53:51.366Z,99.90
2023-04-24T20:56:18.322Z,99.90
2023-04-24T20:58:48.634Z,99.90
2023-04-24T21:01:16.295Z,99.90
2023-04-24T21:03:44.199Z,99.90
2023-04-24T21:06:11.036Z,99.90
2023-04-24T21:08:37.816Z,99.90
2023-04-24T21:11:04.682Z,99.90
2023-04-24T21:13:31.958Z,99.90
2023-04-24T21:15:59.103Z,99.90
2023-04-24T21:18:26.376Z,99.90
2023-04-24T21:20:53.564Z,99.90
2023-04-24T21:23:20.396Z,99.90
2023-04-24T21:25:47.606Z,99.90
2023-04-24T21:28:14.439Z,99.90
2023-04-24T21:30:41.184Z,99.90
2023-04-24T21:33:07.966Z,99.90
2023-04-24T21:35:35.130Z,99.90
2023-04-24T21:38:01.797Z,99.90
2023-04-24T21:40:28.427Z,99.90
2023-04-24T21:42:55.446Z,99.90
2023-04-24T21:45:22.239Z,99.90
2023-04-24T21:47:48.836Z,99.90
2023-04-24T21:50:15.588Z,99.90
2023-04-24T21:52:42.196Z,99.90
2023-04-24T21:55:09.129Z,99.90
2023-04-24T21:57:36.067Z,99.90
2023-04-24T22:00:02.954Z,99.90
2023-04-24T22:02:29.674Z,99.90
2023-04-24T22:04:57.438Z,99.90
2023-04-24T22:07:24.176Z,99.90
2023-04-24T22:09:50.790Z,99.90
2023-04-24T22:12:17.631Z,99.90
2023-04-24T22:14:44.286Z,99.90
2023-04-24T22:17:10.874Z,99.90
2023-04-24T22:19:37.630Z,99.90
2023-04-24T22:22:04.236Z,99.90
2023-04-24T22:24:30.820Z,99.90
2023-04-24T22:26:57.426Z,99.90
2023-04-24T22:29:24.019Z,99.90
2023-04-24T22:31:50.781Z,99.90
2023-04-24T22:34:19.617Z,99.90
2023-04-24T22:36:46.461Z,99.90
2023-04-24T22:39:15.639Z,99.90
2023-04-24T22:41:42.890Z,99.90
2023-04-24T22:44:10.930Z,99.90
2023-04-24T22:46:37.679Z,99.90
2023-04-24T22:49:05.004Z,99.90
2023-04-24T22:51:35.114Z,99.90
2023-04-24T22:54:05.102Z,99.90
2023-04-24T22:56:32.252Z,99.90
2023-04-24T22:58:59.196Z,99.90
2023-04-24T23:01:27.262Z,99.90
2023-04-24T23:03:54.773Z,99.90
2023-04-24T23:06:21.855Z,99.90
2023-04-24T23:08:48.516Z,99.90
2023-04-24T23:11:15.324Z,99.90
2023-04-24T23:13:42.367Z,99.90
2023-04-24T23:16:08.988Z,99.90
2023-04-24T23:18:35.761Z,99.90
2023-04-24T23:21:03.465Z,99.90
2023-04-24T23:23:30.106Z,99.90
2023-04-24T23:25:56.947Z,99.90
2023-04-24T23:28:23.566Z,99.90
2023-04-24T23:30:50.320Z,99.90
2023-04-24T23:33:16.925Z,99.90
2023-04-24T23:35:43.548Z,99.90
2023-04-24T23:38:10.889Z,99.90
2023-04-24T23:40:37.571Z,99.90
2023-04-24T23:43:08.202Z,99.90
2023-04-24T23:45:35.651Z,99.90
2023-04-24T23:48:03.185Z,99.90
2023-04-24T23:50:30.033Z,99.90
2023-04-24T23:52:56.671Z,99.90
2023-04-24T23:55:23.274Z,99.90
2023-04-24T23:57:49.875Z,99.90
